Date,TemperatureHighF,TemperatureAvgF,TemperatureLowF,DewpointHighF,DewpointAvgF,DewpointLowF,HumidityHigh,HumidityAvg,HumidityLow,PressureMaxIn,PressureMinIn,WindSpeedMaxMPH,WindSpeedAvgMPH,GustSpeedMaxMPH,PrecipitationSumIn
2013-7-1,77.4,72.4,69.4,76.8,71.5,69.2,99,97,83,30.10,29.95,3,0,6,0.64
2013-7-2,88.3,73.6,64.0,75.9,70.7,63.8,99,92,62,30.22,30.08,7,2,8,0.00
2013-7-3,87.6,75.0,61.7,74.4,69.8,61.4,99,85,61,30.22,30.16,9,2,9,0.00
2013-7-4,93.9,81.3,71.1,76.1,72.8,70.6,99,78,51,30.24,30.12,10,2,10,0.00
2013-7-5,95.5,81.3,69.4,77.4,73.1,69.2,99,79,51,30.19,30.06,8,2,9,0.00
2013-7-6,91.2,77.8,64.6,74.8,70.1,61.0,99,80,45,30.12,30.03,9,2,11,0.00
2013-7-7,92.5,75.7,62.2,76.3,69.3,62.0,99,83,51,30.07,29.95,7,1,8,0.00
2013-7-8,91.2,77.1,67.8,77.8,70.5,67.6,99,83,49,30.08,29.95,8,1,8,0.17
2013-7-9,83.8,69.5,63.1,72.8,67.4,62.9,99,93,10,30.13,30.07,80,2,80,0.00
2013-7-10,85.8,72.6,65.7,77.4,71.0,65.4,99,95,72,30.09,29.83,8,1,8,0.25
2013-7-11,88.2,75.1,63.1,74.2,70.5,62.9,99,87,54,29.99,29.80,7,1,12,0.01
2013-7-12,85.5,69.9,59.7,65.6,61.3,59.2,99,77,47,30.23,29.99,8,1,10,0.00
2013-7-13,77.4,68.9,59.4,71.5,65.2,58.8,99,88,68,30.33,30.22,4,0,7,0.00
2013-7-14,91.6,77.8,66.7,75.3,70.8,66.5,99,82,52,30.33,30.25,9,1,10,0.00
2013-7-15,88.0,78.5,62.8,76.7,70.3,62.5,99,78,59,30.25,29.72,7,1,8,0.00
2013-7-16,94.1,78.2,62.6,77.1,68.2,62.3,99,76,43,29.94,29.89,11,2,11,0.00
2013-7-17,96.6,79.8,62.4,76.2,69.4,62.2,99,75,45,29.95,29.76,6,2,9,0.00
2013-7-18,97.0,82.6,69.8,75.9,72.3,69.5,99,74,44,29.79,29.70,8,2,9,0.00
2013-7-19,96.3,82.5,68.4,76.4,72.6,67.5,99,75,48,29.72,29.49,14,3,17,0.00
2013-7-20,91.2,76.9,66.2,73.3,68.3,62.9,99,77,50,29.59,29.44,14,2,14,0.00
2013-7-21,90.0,73.1,59.0,67.8,63.8,58.7,99,76,40,29.75,29.59,6,1,8,0.00
2013-7-22,89.2,70.5,59.9,71.0,66.2,59.6,99,88,52,29.77,29.64,6,1,9,0.00
2013-7-23,85.1,69.6,63.7,75.0,67.5,63.4,99,94,65,29.64,29.31,8,1,9,1.05
2013-7-24,84.2,70.7,56.3,72.5,63.4,50.6,99,80,47,29.74,29.36,9,2,12,0.00
2013-7-25,75.0,61.2,52.9,59.8,53.8,47.3,99,78,53,29.85,29.73,8,2,11,0.00
2013-7-26,74.8,64.0,59.2,66.1,61.4,58.9,99,92,69,29.83,29.72,7,2,10,0.21
2013-7-27,86.7,68.8,52.5,65.3,60.1,52.3,99,78,42,29.81,29.74,8,1,10,0.00
2013-7-28,86.9,69.8,56.3,71.1,64.4,56.0,99,85,51,29.77,29.71,5,1,8,0.02
2013-7-29,88.0,73.8,60.8,71.0,65.8,60.5,99,79,46,29.82,29.72,8,2,11,0.01
2013-7-30,84.9,68.2,53.8,60.7,57.6,53.5,99,73,38,29.86,29.79,11,2,12,0.00
2013-7-31,87.6,68.3,53.6,62.7,58.9,53.3,99,76,36,29.90,29.79,8,1,8,0.00